Portada
METAR-TAF:

METAR-TAF

Aeroports :

Clarmont d'Alvèrnia, França

latitud: 45-47N, longitud: 003-10E, altitud: 332 m

Observació

L'informe es va fer fa 34 minuts, a les 17:00 UTC
Vent 4 kt del Nord
Temperatura 17°C
Humitat 59%
Pressió 1020 hPa
Visibilitat 10 km o més
sense núvols per sota de 1500 mi sense presència de cumulonimbus.

METAR: LFLC 191700Z AUTO 36004KT CAVOK 17/09 Q1020 NOSIG

Hora: 19:34 (17:34 UTC)

Pronòstic

L'informe es va fer fa 3 hores i 34 minuts, a les 14:00 UTC
Pronòstic vàlid del 19 a les 15 UTC al 20 a les 15 UTC
Vent 5 kt del Nord/Nord-Est
Visibilitat 10 km o més
sense núvols per sota de 1500 mi sense presència de cumulonimbus.
Evolucionant progressivament
l' 19 a les 16 UTC al 19 a les 18 UTC
Vent 3 kt amb direcció variable
Probabilitat 40% :
Temporalment
l' 20 a les 05 UTC al 20 a les 08 UTC
Visibilitat: 0300 m
boira

TAF: LFLC 191400Z 1915/2015 02005KT CAVOK BECMG 1916/1918 VRB03KT PROB40 TEMPO 2005/2008 0300 FG VV///

Observacions i pronòstics meteorològics de més de 4000 aeroports (METAR i TAF).

Les estacions disponibles són els punts grocs i vermells al mapa.

Posi el ratolí al punt desitjat per veure el nom de l'estació.

Feu clic per veure les observacions i els pronòstics meteorològics.

Per canviar el mapa: feu clic els botons verds amb una creu de color negre per apropar; al botó verd amb un guió per allunyar la imatge; o en les fletxes verdes per a mapes adjacents.


METAR-TAF: